sensor_id;sensor_type;location;lat;lon;timestamp;P1;durP1;ratioP1;P2;durP2;ratioP2
22863;SDS011;11599;49.882;8.680;2023-04-06T00:07:27;6.40;;;3.20;;
22863;SDS011;11599;49.882;8.680;2023-04-06T00:17:50;7.40;;;3.33;;
22863;SDS011;11599;49.882;8.680;2023-04-06T00:28:13;7.47;;;3.27;;
22863;SDS011;11599;49.882;8.680;2023-04-06T00:38:34;8.17;;;3.17;;
22863;SDS011;11599;49.882;8.680;2023-04-06T00:48:57;6.40;;;3.30;;
22863;SDS011;11599;49.882;8.680;2023-04-06T00:59:19;6.68;;;3.60;;
22863;SDS011;11599;49.882;8.680;2023-04-06T01:09:43;5.93;;;3.40;;
22863;SDS011;11599;49.882;8.680;2023-04-06T01:20:12;5.70;;;3.40;;
22863;SDS011;11599;49.882;8.680;2023-04-06T01:30:35;6.77;;;3.50;;
22863;SDS011;11599;49.882;8.680;2023-04-06T01:41:05;7.00;;;3.27;;
22863;SDS011;11599;49.882;8.680;2023-04-06T01:51:39;4.93;;;3.30;;
22863;SDS011;11599;49.882;8.680;2023-04-06T02:02:04;6.43;;;3.30;;
22863;SDS011;11599;49.882;8.680;2023-04-06T02:12:30;9.00;;;3.73;;
22863;SDS011;11599;49.882;8.680;2023-04-06T02:22:51;5.97;;;3.72;;
22863;SDS011;11599;49.882;8.680;2023-04-06T02:33:16;6.30;;;3.30;;
22863;SDS011;11599;49.882;8.680;2023-04-06T02:43:40;5.80;;;3.30;;
22863;SDS011;11599;49.882;8.680;2023-04-06T02:54:14;6.57;;;3.38;;
22863;SDS011;11599;49.882;8.680;2023-04-06T03:04:36;6.47;;;3.17;;
22863;SDS011;11599;49.882;8.680;2023-04-06T03:15:02;7.60;;;3.00;;
22863;SDS011;11599;49.882;8.680;2023-04-06T03:25:24;6.00;;;3.23;;
22863;SDS011;11599;49.882;8.680;2023-04-06T03:35:50;6.25;;;3.60;;
22863;SDS011;11599;49.882;8.680;2023-04-06T03:46:12;6.22;;;3.10;;
22863;SDS011;11599;49.882;8.680;2023-04-06T03:56:35;5.13;;;3.47;;
22863;SDS011;11599;49.882;8.680;2023-04-06T04:06:57;8.93;;;3.43;;
22863;SDS011;11599;49.882;8.680;2023-04-06T04:17:21;6.68;;;3.13;;
22863;SDS011;11599;49.882;8.680;2023-04-06T04:27:42;7.35;;;3.13;;
22863;SDS011;11599;49.882;8.680;2023-04-06T04:38:06;5.27;;;3.17;;
22863;SDS011;11599;49.882;8.680;2023-04-06T04:48:31;7.50;;;3.88;;
22863;SDS011;11599;49.882;8.680;2023-04-06T04:58:57;7.93;;;3.17;;
22863;SDS011;11599;49.882;8.680;2023-04-06T05:09:20;7.90;;;3.28;;
22863;SDS011;11599;49.882;8.680;2023-04-06T05:19:43;5.77;;;3.30;;
22863;SDS011;11599;49.882;8.680;2023-04-06T05:30:08;9.20;;;3.50;;
22863;SDS011;11599;49.882;8.680;2023-04-06T05:40:43;5.90;;;3.50;;
22863;SDS011;11599;49.882;8.680;2023-04-06T05:51:13;7.45;;;3.92;;
22863;SDS011;11599;49.882;8.680;2023-04-06T06:01:47;10.33;;;3.70;;
22863;SDS011;11599;49.882;8.680;2023-04-06T06:12:15;8.03;;;4.10;;
22863;SDS011;11599;49.882;8.680;2023-04-06T06:22:38;8.23;;;4.47;;
22863;SDS011;11599;49.882;8.680;2023-04-06T06:33:04;9.80;;;4.10;;
22863;SDS011;11599;49.882;8.680;2023-04-06T06:43:28;12.33;;;4.90;;
22863;SDS011;11599;49.882;8.680;2023-04-06T06:54:27;11.33;;;5.57;;
22863;SDS011;11599;49.882;8.680;2023-04-06T07:17:07;14.70;;;7.88;;
22863;SDS011;11599;49.882;8.680;2023-04-06T07:27:33;13.95;;;8.32;;
22863;SDS011;11599;49.882;8.680;2023-04-06T07:37:57;18.23;;;8.40;;
22863;SDS011;11599;49.882;8.680;2023-04-06T07:48:19;15.00;;;8.30;;
22863;SDS011;11599;49.882;8.680;2023-04-06T07:58:42;13.75;;;8.20;;
22863;SDS011;11599;49.882;8.680;2023-04-06T08:09:03;16.38;;;7.75;;
22863;SDS011;11599;49.882;8.680;2023-04-06T08:19:26;16.63;;;8.37;;
22863;SDS011;11599;49.882;8.680;2023-04-06T08:29:49;15.37;;;8.33;;
22863;SDS011;11599;49.882;8.680;2023-04-06T08:40:14;14.80;;;7.37;;
22863;SDS011;11599;49.882;8.680;2023-04-06T08:50:54;11.90;;;7.70;;
22863;SDS011;11599;49.882;8.680;2023-04-06T09:01:20;15.57;;;8.00;;
22863;SDS011;11599;49.882;8.680;2023-04-06T09:35:05;15.57;;;7.40;;
22863;SDS011;11599;49.882;8.680;2023-04-06T09:45:30;17.53;;;7.33;;
22863;SDS011;11599;49.882;8.680;2023-04-06T09:55:53;14.48;;;7.50;;
22863;SDS011;11599;49.882;8.680;2023-04-06T10:06:28;16.85;;;7.80;;
22863;SDS011;11599;49.882;8.680;2023-04-06T10:37:46;12.23;;;7.63;;
22863;SDS011;11599;49.882;8.680;2023-04-06T10:48:15;15.57;;;7.72;;
22863;SDS011;11599;49.882;8.680;2023-04-06T10:58:38;11.10;;;6.93;;
22863;SDS011;11599;49.882;8.680;2023-04-06T11:09:00;12.87;;;7.23;;
22863;SDS011;11599;49.882;8.680;2023-04-06T11:19:23;12.02;;;7.60;;
22863;SDS011;11599;49.882;8.680;2023-04-06T11:29:45;9.52;;;6.78;;
22863;SDS011;11599;49.882;8.680;2023-04-06T11:40:09;12.00;;;7.27;;
22863;SDS011;11599;49.882;8.680;2023-04-06T11:50:31;12.43;;;7.47;;
22863;SDS011;11599;49.882;8.680;2023-04-06T12:01:02;11.20;;;7.20;;
22863;SDS011;11599;49.882;8.680;2023-04-06T12:11:24;12.37;;;7.40;;
22863;SDS011;11599;49.882;8.680;2023-04-06T12:21:47;11.37;;;6.90;;
22863;SDS011;11599;49.882;8.680;2023-04-06T12:32:09;12.18;;;7.40;;
22863;SDS011;11599;49.882;8.680;2023-04-06T12:42:32;16.00;;;9.25;;
22863;SDS011;11599;49.882;8.680;2023-04-06T12:52:54;12.15;;;6.45;;
22863;SDS011;11599;49.882;8.680;2023-04-06T13:03:18;12.47;;;7.10;;
22863;SDS011;11599;49.882;8.680;2023-04-06T13:13:40;9.00;;;5.70;;
22863;SDS011;11599;49.882;8.680;2023-04-06T13:24:03;14.18;;;5.57;;
22863;SDS011;11599;49.882;8.680;2023-04-06T13:34:25;11.37;;;5.90;;
22863;SDS011;11599;49.882;8.680;2023-04-06T13:44:48;12.15;;;6.78;;
22863;SDS011;11599;49.882;8.680;2023-04-06T13:55:10;10.13;;;5.93;;
22863;SDS011;11599;49.882;8.680;2023-04-06T14:05:33;10.90;;;6.60;;
22863;SDS011;11599;49.882;8.680;2023-04-06T14:15:55;8.98;;;6.10;;
22863;SDS011;11599;49.882;8.680;2023-04-06T14:26:18;11.17;;;6.63;;
22863;SDS011;11599;49.882;8.680;2023-04-06T14:36:40;12.10;;;6.90;;
22863;SDS011;11599;49.882;8.680;2023-04-06T14:47:03;12.40;;;6.73;;
22863;SDS011;11599;49.882;8.680;2023-04-06T14:57:25;11.57;;;7.37;;
22863;SDS011;11599;49.882;8.680;2023-04-06T15:07:48;11.73;;;6.47;;
22863;SDS011;11599;49.882;8.680;2023-04-06T15:18:10;10.10;;;6.00;;
22863;SDS011;11599;49.882;8.680;2023-04-06T15:28:33;13.55;;;7.50;;
22863;SDS011;11599;49.882;8.680;2023-04-06T15:38:54;10.53;;;5.83;;
22863;SDS011;11599;49.882;8.680;2023-04-06T15:49:17;8.32;;;4.65;;
22863;SDS011;11599;49.882;8.680;2023-04-06T15:59:39;6.70;;;3.97;;
22863;SDS011;11599;49.882;8.680;2023-04-06T16:10:03;7.97;;;4.20;;
22863;SDS011;11599;49.882;8.680;2023-04-06T16:30:45;7.75;;;4.10;;
22863;SDS011;11599;49.882;8.680;2023-04-06T16:41:11;8.43;;;4.30;;
22863;SDS011;11599;49.882;8.680;2023-04-06T16:51:35;8.30;;;3.97;;
22863;SDS011;11599;49.882;8.680;2023-04-06T17:01:59;7.10;;;3.67;;
22863;SDS011;11599;49.882;8.680;2023-04-06T17:32:56;5.03;;;2.90;;
22863;SDS011;11599;49.882;8.680;2023-04-06T17:43:22;7.55;;;3.03;;
22863;SDS011;11599;49.882;8.680;2023-04-06T18:04:11;4.67;;;2.83;;
22863;SDS011;11599;49.882;8.680;2023-04-06T18:14:33;7.70;;;3.40;;
22863;SDS011;11599;49.882;8.680;2023-04-06T18:24:58;6.47;;;3.60;;
22863;SDS011;11599;49.882;8.680;2023-04-06T18:35:21;6.17;;;3.40;;
22863;SDS011;11599;49.882;8.680;2023-04-06T18:45:44;6.40;;;3.60;;
22863;SDS011;11599;49.882;8.680;2023-04-06T18:56:11;6.80;;;3.93;;
22863;SDS011;11599;49.882;8.680;2023-04-06T19:06:35;7.17;;;3.90;;
22863;SDS011;11599;49.882;8.680;2023-04-06T19:17:03;7.33;;;4.60;;
22863;SDS011;11599;49.882;8.680;2023-04-06T19:27:27;6.13;;;4.00;;
22863;SDS011;11599;49.882;8.680;2023-04-06T19:37:49;7.60;;;4.63;;
22863;SDS011;11599;49.882;8.680;2023-04-06T19:48:16;8.90;;;5.00;;
22863;SDS011;11599;49.882;8.680;2023-04-06T21:11:20;16.60;;;8.10;;
22863;SDS011;11599;49.882;8.680;2023-04-06T21:21:44;18.67;;;9.30;;
22863;SDS011;11599;49.882;8.680;2023-04-06T21:32:07;14.43;;;8.83;;
22863;SDS011;11599;49.882;8.680;2023-04-06T21:42:29;15.87;;;8.87;;
22863;SDS011;11599;49.882;8.680;2023-04-06T21:52:51;17.27;;;9.40;;
22863;SDS011;11599;49.882;8.680;2023-04-06T22:03:13;21.40;;;10.10;;
22863;SDS011;11599;49.882;8.680;2023-04-06T22:13:36;19.57;;;11.60;;
22863;SDS011;11599;49.882;8.680;2023-04-06T22:23:58;19.20;;;9.77;;
22863;SDS011;11599;49.882;8.680;2023-04-06T22:34:20;17.97;;;9.40;;
22863;SDS011;11599;49.882;8.680;2023-04-06T22:44:42;16.50;;;9.23;;
22863;SDS011;11599;49.882;8.680;2023-04-06T22:55:05;17.07;;;9.03;;
22863;SDS011;11599;49.882;8.680;2023-04-06T23:05:27;21.40;;;11.00;;
22863;SDS011;11599;49.882;8.680;2023-04-06T23:15:50;22.07;;;11.23;;
22863;SDS011;11599;49.882;8.680;2023-04-06T23:26:11;22.17;;;10.70;;
22863;SDS011;11599;49.882;8.680;2023-04-06T23:36:34;19.87;;;9.87;;
22863;SDS011;11599;49.882;8.680;2023-04-06T23:46:56;19.43;;;9.93;;
22863;SDS011;11599;49.882;8.680;2023-04-06T23:57:18;19.73;;;9.93;;
